Time;durP1;ratioP1;P1;durP2;ratioP2;P2;SDS_P1;SDS_P2;PMS_P1;PMS_P2;Temp;Humidity;BMP_temperature;BMP_pressure;BME280_temperature;BME280_humidity;BME280_pressure;Samples;Min_cycle;Max_cycle;Signal;HPM_P1;HPM_P2
2022/03/05 00:01:17;;;;;;;12.48;6.78;;;2.80;99.90;;;;;;5055001;28;20219;-78
2022/03/05 00:03:44;;;;;;;14.60;7.50;;;2.80;99.90;;;;;;5055954;28;20305;-72
2022/03/05 00:06:11;;;;;;;9.63;7.70;;;2.90;99.90;;;;;;5056051;28;20242;-77
2022/03/05 00:08:38;;;;;;;11.48;6.75;;;2.80;99.90;;;;;;5055550;28;20204;-73
2022/03/05 00:11:05;;;;;;;12.60;8.05;;;2.90;99.90;;;;;;5054409;28;20251;-76
2022/03/05 00:13:35;;;;;;;10.65;6.47;;;2.90;99.90;;;;;;5055179;28;20210;-74
2022/03/05 00:16:02;;;;;;;9.77;6.60;;;2.80;99.90;;;;;;5054588;28;20213;-70
2022/03/05 00:18:29;;;;;;;13.88;7.90;;;2.80;99.90;;;;;;5054865;28;20629;-77
2022/03/05 00:20:56;;;;;;;11.98;8.15;;;2.80;99.90;;;;;;5054006;28;20195;-76
2022/03/05 00:23:24;;;;;;;10.88;6.93;;;2.80;99.90;;;;;;5054968;28;20222;-73
2022/03/05 00:25:51;;;;;;;11.68;7.68;;;2.80;99.90;;;;;;5054676;28;20641;-73
2022/03/05 00:28:18;;;;;;;9.13;6.88;;;2.80;99.90;;;;;;5054795;28;20294;-74
2022/03/05 00:30:46;;;;;;;12.10;7.15;;;2.70;99.90;;;;;;5053404;28;20199;-75
2022/03/05 00:33:14;;;;;;;11.00;7.43;;;2.70;99.90;;;;;;5054493;28;20213;-75
2022/03/05 00:35:40;;;;;;;9.82;6.75;;;2.60;99.90;;;;;;5058196;28;20203;-72
2022/03/05 00:38:08;;;;;;;9.15;6.85;;;2.60;99.90;;;;;;5056958;28;20251;-72
2022/03/05 00:40:35;;;;;;;12.95;8.10;;;2.60;99.90;;;;;;5053902;28;20202;-73
2022/03/05 00:43:02;;;;;;;11.52;7.60;;;2.70;99.90;;;;;;5048405;28;20719;-75
2022/03/05 00:45:29;;;;;;;13.32;7.68;;;2.60;99.90;;;;;;5053999;28;20210;-74
2022/03/05 00:47:57;;;;;;;13.73;8.35;;;2.50;99.90;;;;;;5054294;28;20252;-72
2022/03/05 00:50:24;;;;;;;8.68;6.45;;;2.50;99.90;;;;;;5053729;28;20298;-75
2022/03/05 00:52:51;;;;;;;10.63;7.10;;;2.50;99.90;;;;;;5053429;28;20417;-75
2022/03/05 00:55:18;;;;;;;12.88;7.05;;;2.50;99.90;;;;;;5054323;28;20293;-74
2022/03/05 00:57:45;;;;;;;11.02;6.90;;;2.40;99.90;;;;;;5053878;28;20227;-72
2022/03/05 01:00:12;;;;;;;10.52;7.72;;;2.40;99.90;;;;;;5053611;28;20243;-73
2022/03/05 01:02:40;;;;;;;10.45;8.02;;;2.30;99.90;;;;;;5053369;28;20231;-71
2022/03/05 01:05:09;;;;;;;10.07;7.70;;;2.30;99.90;;;;;;5053571;28;20239;-74
2022/03/05 01:07:36;;;;;;;12.55;7.68;;;2.20;99.90;;;;;;5053844;28;20195;-74
2022/03/05 01:10:04;;;;;;;11.38;7.18;;;2.20;99.90;;;;;;5053225;28;20249;-77
2022/03/05 01:12:31;;;;;;;11.18;7.90;;;2.10;99.90;;;;;;5056173;28;20491;-73
2022/03/05 01:14:58;;;;;;;8.57;7.28;;;2.10;99.90;;;;;;5054284;28;20295;-72
2022/03/05 01:17:25;;;;;;;14.02;7.47;;;2.10;99.90;;;;;;5053883;28;20195;-71
2022/03/05 01:19:52;;;;;;;11.50;6.60;;;2.10;99.90;;;;;;5053334;28;20283;-73
2022/03/05 01:22:20;;;;;;;10.80;7.07;;;2.00;99.90;;;;;;5053688;28;20224;-74
2022/03/05 01:24:47;;;;;;;11.85;6.93;;;2.00;99.90;;;;;;5053601;28;20295;-72
2022/03/05 01:27:14;;;;;;;10.15;6.93;;;2.10;99.90;;;;;;5053876;28;20301;-75
2022/03/05 01:29:42;;;;;;;8.60;6.97;;;2.00;99.90;;;;;;5052781;28;20657;-74
2022/03/05 01:32:09;;;;;;;9.90;6.10;;;2.00;99.90;;;;;;5053111;28;20227;-72
2022/03/05 01:34:36;;;;;;;11.43;6.38;;;2.10;99.90;;;;;;5053257;28;20277;-77
2022/03/05 01:37:03;;;;;;;7.85;6.00;;;2.10;99.90;;;;;;5053461;28;20207;-73
2022/03/05 01:39:32;;;;;;;6.80;5.00;;;2.00;99.90;;;;;;5052859;28;20314;-73
2022/03/05 01:41:59;;;;;;;13.05;7.07;;;2.00;99.90;;;;;;5052874;28;20227;-73
2022/03/05 01:44:26;;;;;;;7.75;5.88;;;2.00;99.90;;;;;;5053748;28;20286;-72
2022/03/05 01:46:53;;;;;;;7.22;5.10;;;2.00;99.90;;;;;;5054574;28;20232;-75
2022/03/05 01:49:20;;;;;;;7.78;5.55;;;2.00;99.90;;;;;;5054929;28;20290;-72
2022/03/05 01:51:48;;;;;;;7.43;5.30;;;2.00;99.90;;;;;;5052980;28;20230;-72
2022/03/05 01:54:15;;;;;;;10.82;5.93;;;2.00;99.90;;;;;;5052867;28;20286;-72
2022/03/05 01:56:45;;;;;;;8.00;5.95;;;2.00;99.90;;;;;;5053429;28;20200;-71
2022/03/05 01:59:12;;;;;;;7.15;4.82;;;2.00;99.90;;;;;;5052851;28;20655;-74
2022/03/05 02:01:39;;;;;;;8.32;6.18;;;2.00;99.90;;;;;;5052276;28;20227;-74
2022/03/05 02:04:07;;;;;;;9.13;6.22;;;2.00;99.90;;;;;;5052843;28;20646;-74
2022/03/05 02:06:35;;;;;;;8.35;6.00;;;2.00;99.90;;;;;;5053122;28;20210;-75
2022/03/05 02:09:02;;;;;;;8.80;5.70;;;1.90;99.90;;;;;;5053365;28;20196;-71
2022/03/05 02:11:30;;;;;;;6.88;5.20;;;1.90;99.90;;;;;;5052414;28;20689;-73
2022/03/05 02:13:58;;;;;;;12.35;5.72;;;2.00;99.90;;;;;;5052734;28;20231;-73
2022/03/05 02:16:25;;;;;;;7.55;5.90;;;1.90;99.90;;;;;;5052871;28;20206;-72
2022/03/05 02:18:55;;;;;;;7.28;4.97;;;1.90;99.90;;;;;;5052156;28;20323;-76
2022/03/05 02:21:24;;;;;;;8.93;5.78;;;1.90;99.90;;;;;;5049727;28;20234;-73
2022/03/05 02:23:51;;;;;;;9.48;5.82;;;1.90;99.90;;;;;;5055931;28;20230;-71
2022/03/05 02:26:19;;;;;;;8.93;5.30;;;1.90;99.90;;;;;;5053669;28;20203;-72
2022/03/05 02:28:46;;;;;;;8.05;5.50;;;1.90;99.90;;;;;;5053740;28;20214;-72
2022/03/05 02:31:13;;;;;;;7.75;5.05;;;1.90;99.90;;;;;;5054035;28;20255;-73
2022/03/05 02:33:40;;;;;;;6.57;4.80;;;1.90;99.90;;;;;;5053782;28;20219;-73
2022/03/05 02:36:08;;;;;;;8.90;5.30;;;1.80;99.90;;;;;;5054640;28;20207;-73
2022/03/05 02:38:36;;;;;;;6.07;4.57;;;1.90;99.90;;;;;;5051716;28;20275;-73
2022/03/05 02:41:06;;;;;;;8.35;5.13;;;1.80;99.90;;;;;;5045547;28;20286;-72
2022/03/05 02:43:33;;;;;;;7.97;5.18;;;1.80;99.90;;;;;;5057004;28;20207;-74
2022/03/05 02:46:00;;;;;;;5.97;4.68;;;1.80;99.90;;;;;;5064383;28;20624;-72
2022/03/05 02:48:27;;;;;;;8.15;5.72;;;1.70;99.90;;;;;;5050942;28;20232;-73
2022/03/05 02:50:54;;;;;;;7.20;4.90;;;1.70;99.90;;;;;;5048888;28;20206;-72
2022/03/05 02:53:22;;;;;;;8.05;5.30;;;1.70;99.90;;;;;;5049600;28;20301;-73
2022/03/05 02:55:50;;;;;;;9.82;4.13;;;1.60;99.90;;;;;;5052954;28;20200;-73
2022/03/05 02:58:17;;;;;;;7.40;5.07;;;1.60;99.90;;;;;;5054467;28;20235;-72
2022/03/05 03:00:44;;;;;;;10.98;4.88;;;1.60;99.90;;;;;;5055096;28;20287;-74
2022/03/05 03:03:12;;;;;;;8.38;4.90;;;1.50;99.90;;;;;;5053140;28;20200;-74
2022/03/05 03:05:39;;;;;;;5.13;4.50;;;1.60;99.90;;;;;;5052909;28;20234;-73
2022/03/05 03:08:06;;;;;;;9.07;5.32;;;1.50;99.90;;;;;;5053709;28;20243;-75
2022/03/05 03:10:33;;;;;;;10.68;5.13;;;1.50;99.90;;;;;;5051761;28;20287;-74
2022/03/05 03:13:02;;;;;;;7.97;5.68;;;1.40;99.90;;;;;;5052289;28;20764;-74
2022/03/05 03:15:29;;;;;;;10.20;6.10;;;1.40;99.90;;;;;;5051737;28;20615;-74
2022/03/05 03:17:56;;;;;;;6.18;4.65;;;1.50;99.90;;;;;;5052076;28;20283;-72
2022/03/05 03:20:24;;;;;;;10.05;4.97;;;1.50;99.90;;;;;;5052153;28;20242;-76
2022/03/05 03:22:52;;;;;;;7.97;4.30;;;1.50;99.90;;;;;;5051949;28;20326;-74
2022/03/05 03:25:19;;;;;;;5.75;4.40;;;1.40;99.90;;;;;;5052483;28;20603;-74
2022/03/05 03:27:46;;;;;;;5.90;5.05;;;1.40;99.90;;;;;;5048716;28;20228;-73
2022/03/05 03:30:15;;;;;;;9.20;5.25;;;1.30;99.90;;;;;;5054375;28;20265;-73
2022/03/05 03:32:43;;;;;;;8.18;4.88;;;1.30;99.90;;;;;;5057032;28;20227;-71
2022/03/05 03:35:14;;;;;;;10.40;4.93;;;1.30;99.90;;;;;;5061873;28;20304;-74
2022/03/05 03:37:42;;;;;;;6.85;4.53;;;1.30;99.90;;;;;;5055937;28;20208;-74
2022/03/05 03:40:12;;;;;;;6.78;4.93;;;1.20;99.90;;;;;;5055065;28;20704;-71
2022/03/05 03:42:39;;;;;;;5.78;4.03;;;1.20;99.90;;;;;;5055300;28;20306;-74
2022/03/05 03:45:07;;;;;;;5.95;4.00;;;1.20;99.90;;;;;;5055914;28;20208;-77
2022/03/05 03:47:37;;;;;;;4.30;3.88;;;1.10;99.90;;;;;;5055637;28;20205;-73
2022/03/05 03:50:06;;;;;;;12.38;3.83;;;1.10;99.90;;;;;;5050212;28;20606;-72
2022/03/05 03:52:33;;;;;;;5.82;3.90;;;1.10;99.90;;;;;;5055310;28;20227;-75
2022/03/05 03:55:00;;;;;;;4.47;3.72;;;1.10;99.90;;;;;;5055362;28;20202;-75
2022/03/05 03:57:27;;;;;;;9.15;4.78;;;1.10;99.90;;;;;;5055710;28;20246;-72
2022/03/05 03:59:54;;;;;;;7.00;3.83;;;1.10;99.90;;;;;;5054644;28;20269;-73
2022/03/05 04:02:22;;;;;;;5.32;3.50;;;1.10;99.90;;;;;;5055308;28;20300;-72
2022/03/05 04:04:50;;;;;;;7.03;4.72;;;1.00;99.90;;;;;;5055845;28;20207;-74
2022/03/05 04:10:05;;;;;;;4.57;3.30;;;1.00;99.90;;;;;;5053998;28;20246;-74
2022/03/05 04:12:32;;;;;;;5.22;3.60;;;1.00;99.90;;;;;;5051181;28;20230;-75
2022/03/05 04:14:59;;;;;;;8.07;3.83;;;1.00;99.90;;;;;;5054754;28;20660;-72
2022/03/05 04:17:26;;;;;;;4.70;4.30;;;1.00;99.90;;;;;;5055575;28;20227;-73
2022/03/05 04:19:54;;;;;;;7.05;4.13;;;1.00;99.90;;;;;;5054474;28;20306;-72
2022/03/05 04:22:21;;;;;;;5.57;4.25;;;1.00;99.90;;;;;;5055869;28;20219;-71
2022/03/05 04:24:48;;;;;;;5.70;3.20;;;1.00;99.90;;;;;;5059036;28;20287;-75
2022/03/05 04:27:15;;;;;;;6.13;4.07;;;1.00;99.90;;;;;;5055851;28;20202;-74
2022/03/05 04:29:42;;;;;;;7.07;3.67;;;1.00;99.90;;;;;;5057300;28;20209;-72
2022/03/05 04:32:09;;;;;;;3.83;3.20;;;1.00;99.90;;;;;;5065773;28;20323;-70
2022/03/05 04:34:36;;;;;;;6.28;4.07;;;1.00;99.90;;;;;;5063752;28;20222;-71
2022/03/05 04:37:05;;;;;;;5.88;3.60;;;1.00;99.90;;;;;;5051993;28;20286;-73
2022/03/05 04:39:32;;;;;;;5.80;3.80;;;1.00;99.90;;;;;;5055113;28;20218;-73
2022/03/05 04:41:59;;;;;;;6.80;5.22;;;0.90;99.90;;;;;;5054116;28;20225;-73
2022/03/05 04:44:26;;;;;;;5.97;4.22;;;0.90;99.90;;;;;;5053844;28;20205;-72
2022/03/05 04:46:53;;;;;;;6.13;3.25;;;0.80;99.90;;;;;;5054526;28;20809;-75
2022/03/05 04:49:20;;;;;;;5.47;3.42;;;0.90;99.90;;;;;;5054485;28;20210;-70
2022/03/05 04:51:47;;;;;;;5.40;3.55;;;0.90;99.90;;;;;;5054033;28;20303;-73
2022/03/05 04:54:15;;;;;;;3.50;3.20;;;0.90;99.90;;;;;;5049561;28;20695;-76
2022/03/05 04:56:42;;;;;;;4.57;3.47;;;0.90;99.90;;;;;;5054315;28;20239;-74
2022/03/05 04:59:09;;;;;;;6.95;3.13;;;0.90;99.90;;;;;;5054966;28;20204;-73
2022/03/05 05:01:36;;;;;;;6.47;2.78;;;0.90;99.90;;;;;;5056390;28;20326;-73
2022/03/05 05:04:03;;;;;;;3.58;2.95;;;0.80;99.90;;;;;;5048320;28;20731;-75
2022/03/05 05:06:30;;;;;;;12.48;3.60;;;0.80;99.90;;;;;;5054346;28;20664;-74
2022/03/05 05:08:56;;;;;;;8.98;4.10;;;1.00;99.90;;;;;;5054181;28;20289;-72
2022/03/05 05:11:25;;;;;;;9.43;3.85;;;0.80;99.90;;;;;;5053454;28;20222;-72
2022/03/05 05:13:52;;;;;;;5.22;3.33;;;0.80;99.90;;;;;;5053593;28;20665;-72
2022/03/05 05:16:19;;;;;;;6.72;3.42;;;0.80;99.90;;;;;;5053795;28;20203;-75
2022/03/05 05:21:26;;;;;;;5.55;3.63;;;0.70;99.90;;;;;;5047839;28;20227;-73
2022/03/05 05:23:53;;;;;;;4.30;2.58;;;0.70;99.90;;;;;;5049670;28;20228;-74
2022/03/05 05:26:20;;;;;;;8.77;6.68;;;0.70;99.90;;;;;;5053312;28;20203;-72
2022/03/05 05:28:48;;;;;;;7.40;3.65;;;0.70;99.90;;;;;;5053677;28;20628;-74
2022/03/05 05:31:15;;;;;;;10.18;3.67;;;0.70;99.90;;;;;;5045902;28;20254;-74
2022/03/05 05:33:44;;;;;;;6.97;3.63;;;0.60;99.90;;;;;;5054086;28;20221;-74
2022/03/05 05:36:11;;;;;;;3.90;2.72;;;0.70;99.90;;;;;;5053250;28;20208;-75
2022/03/05 05:38:39;;;;;;;4.40;2.90;;;0.60;99.90;;;;;;5057721;28;20200;-75
2022/03/05 05:41:06;;;;;;;3.78;3.08;;;0.60;99.90;;;;;;5052824;28;20238;-75
2022/03/05 05:43:33;;;;;;;8.95;3.38;;;0.60;99.90;;;;;;5053533;28;20238;-74
2022/03/05 05:46:01;;;;;;;4.63;3.45;;;0.70;99.90;;;;;;5053704;28;20318;-72
2022/03/05 05:48:28;;;;;;;5.15;3.05;;;0.70;99.90;;;;;;5053902;28;20303;-72
2022/03/05 05:50:55;;;;;;;3.75;3.15;;;0.60;99.90;;;;;;5052122;28;20199;-74
2022/03/05 05:53:22;;;;;;;7.55;3.40;;;0.60;99.90;;;;;;5053367;28;20210;-73
2022/03/05 05:55:49;;;;;;;6.25;3.72;;;0.60;99.90;;;;;;5053350;28;20537;-73
2022/03/05 05:58:16;;;;;;;10.18;3.72;;;0.60;99.90;;;;;;5053765;28;20210;-76
2022/03/05 06:00:43;;;;;;;10.73;3.55;;;0.70;99.90;;;;;;5052979;28;20354;-74
2022/03/05 06:03:11;;;;;;;5.57;3.40;;;0.70;99.90;;;;;;5053763;28;20219;-71
2022/03/05 06:05:38;;;;;;;5.65;2.97;;;0.60;99.90;;;;;;5053308;28;20203;-76
2022/03/05 06:08:05;;;;;;;3.53;3.10;;;0.70;99.90;;;;;;5053305;28;20310;-71
2022/03/05 06:10:32;;;;;;;6.60;2.83;;;0.60;99.90;;;;;;5052596;28;20200;-71
2022/03/05 06:12:59;;;;;;;4.65;3.15;;;0.60;99.90;;;;;;5055338;28;20251;-70
2022/03/05 06:15:26;;;;;;;5.22;2.90;;;0.60;99.90;;;;;;5053872;28;20199;-71
2022/03/05 06:17:56;;;;;;;5.28;3.20;;;0.60;99.90;;;;;;5048045;28;20199;-74
2022/03/05 06:20:25;;;;;;;3.75;3.03;;;0.60;99.90;;;;;;5055633;28;20298;-72
2022/03/05 06:22:56;;;;;;;6.28;4.10;;;0.70;99.90;;;;;;5064359;28;20230;-71
2022/03/05 06:25:23;;;;;;;3.90;2.90;;;0.70;99.90;;;;;;5058302;28;20229;-71
2022/03/05 06:27:54;;;;;;;4.47;2.75;;;0.70;99.90;;;;;;5060003;28;20208;-71
2022/03/05 06:30:21;;;;;;;7.28;3.38;;;0.80;99.90;;;;;;5052386;28;20201;-74
2022/03/05 06:32:48;;;;;;;3.65;3.35;;;0.80;99.90;;;;;;5051858;28;20226;-75
2022/03/05 06:35:15;;;;;;;3.35;2.90;;;0.90;99.90;;;;;;5046131;28;20302;-74
2022/03/05 06:37:44;;;;;;;11.40;2.97;;;1.00;99.90;;;;;;5053137;28;20207;-74
2022/03/05 06:40:12;;;;;;;5.90;3.20;;;1.00;99.90;;;;;;5048253;28;20235;-75
2022/03/05 06:42:40;;;;;;;5.13;3.65;;;1.00;99.90;;;;;;5050098;28;20230;-73
2022/03/05 06:45:09;;;;;;;6.60;3.45;;;1.10;99.90;;;;;;5052694;28;20229;-75
2022/03/05 06:47:37;;;;;;;6.07;3.67;;;1.10;99.90;;;;;;5052755;28;20243;-76
2022/03/05 06:50:04;;;;;;;6.55;4.35;;;1.10;99.90;;;;;;5045504;28;20674;-76
2022/03/05 06:52:31;;;;;;;6.07;3.55;;;1.10;99.90;;;;;;5055186;28;20227;-74
2022/03/05 06:54:59;;;;;;;6.35;3.65;;;1.30;99.90;;;;;;5053204;28;20215;-76
2022/03/05 06:57:28;;;;;;;10.10;4.15;;;1.30;99.90;;;;;;5053173;28;20275;-74
2022/03/05 06:59:55;;;;;;;6.78;4.65;;;1.50;99.90;;;;;;5051820;28;20243;-75
2022/03/05 07:02:22;;;;;;;4.57;2.88;;;1.80;99.90;;;;;;5044252;28;20301;-73
2022/03/05 07:04:49;;;;;;;7.53;3.20;;;2.70;99.90;;;;;;5056253;28;20235;-72
2022/03/05 07:07:17;;;;;;;7.28;3.70;;;3.90;99.90;;;;;;5056805;28;20203;-69
2022/03/05 07:09:44;;;;;;;9.75;4.03;;;5.10;99.90;;;;;;5055964;28;20645;-74
2022/03/05 07:12:13;;;;;;;4.70;2.75;;;6.20;99.90;;;;;;5056912;28;20308;-77
2022/03/05 07:14:40;;;;;;;6.00;2.67;;;7.20;99.90;;;;;;5056325;28;20553;-75
2022/03/05 07:17:07;;;;;;;4.07;3.55;;;8.10;98.00;;;;;;5055845;28;20207;-71
2022/03/05 07:19:34;;;;;;;4.15;3.05;;;8.90;94.90;;;;;;5055621;28;20303;-73
2022/03/05 07:22:02;;;;;;;4.88;3.33;;;9.80;92.60;;;;;;5055226;28;20219;-72
2022/03/05 07:24:28;;;;;;;9.15;4.90;;;10.60;89.00;;;;;;5055928;28;20217;-75
2022/03/05 07:26:55;;;;;;;6.65;3.70;;;11.30;84.30;;;;;;5058240;28;20211;-73
2022/03/05 07:29:23;;;;;;;5.55;3.83;;;11.40;80.70;;;;;;5056048;28;20290;-76
2022/03/05 07:31:51;;;;;;;4.10;3.50;;;11.40;80.60;;;;;;5054989;28;20719;-72
2022/03/05 07:34:18;;;;;;;5.60;3.90;;;12.30;79.50;;;;;;5056280;28;20225;-70
2022/03/05 07:36:45;;;;;;;4.53;3.80;;;12.70;75.70;;;;;;5055675;28;20210;-74
2022/03/05 07:39:11;;;;;;;8.02;4.85;;;12.80;74.20;;;;;;5056087;28;20290;-73
2022/03/05 07:41:38;;;;;;;6.93;4.50;;;13.20;73.90;;;;;;5055175;28;20259;-72
2022/03/05 07:44:07;;;;;;;5.85;4.38;;;13.90;72.10;;;;;;5055232;28;20670;-74
2022/03/05 07:46:37;;;;;;;6.15;4.78;;;14.30;69.70;;;;;;5055612;28;20554;-74
2022/03/05 07:49:05;;;;;;;5.50;4.85;;;14.70;68.00;;;;;;5055705;28;20264;-71
2022/03/05 07:51:32;;;;;;;5.15;4.55;;;14.90;66.60;;;;;;5054827;28;20234;-73
2022/03/05 07:53:59;;;;;;;5.60;4.50;;;15.10;65.20;;;;;;5055289;28;20298;-75
2022/03/05 07:56:26;;;;;;;5.32;4.82;;;15.40;64.10;;;;;;5055595;28;20451;-72
2022/03/05 07:58:53;;;;;;;6.70;4.82;;;15.20;63.40;;;;;;5054946;28;20639;-75
2022/03/05 08:01:20;;;;;;;7.00;5.67;;;15.20;63.40;;;;;;5056396;28;20269;-70
2022/03/05 08:03:48;;;;;;;8.20;5.00;;;15.40;63.00;;;;;;5056041;28;20465;-72
2022/03/05 08:06:15;;;;;;;7.03;5.30;;;15.70;62.50;;;;;;5054886;28;20528;-72
2022/03/05 08:08:42;;;;;;;7.00;5.47;;;15.80;61.40;;;;;;5055871;28;20452;-72
2022/03/05 08:11:10;;;;;;;6.88;6.13;;;16.00;61.20;;;;;;5056670;28;20507;-74
2022/03/05 08:13:39;;;;;;;7.50;5.60;;;15.90;60.80;;;;;;5057596;28;20902;-72
2022/03/05 08:16:06;;;;;;;7.23;5.43;;;16.20;61.20;;;;;;5059191;28;20446;-73
2022/03/05 08:18:33;;;;;;;8.40;5.10;;;17.00;60.10;;;;;;5055493;28;20521;-74
2022/03/05 08:21:03;;;;;;;6.10;5.50;;;17.30;59.40;;;;;;5053636;28;20504;-71
2022/03/05 08:23:29;;;;;;;6.20;5.10;;;17.70;57.80;;;;;;5054068;28;21024;-74
2022/03/05 08:25:56;;;;;;;8.40;6.17;;;17.50;57.60;;;;;;5054424;28;20447;-73
2022/03/05 08:28:23;;;;;;;6.70;5.70;;;18.20;57.60;;;;;;5054383;28;20480;-74
2022/03/05 08:30:50;;;;;;;7.63;6.83;;;18.70;56.30;;;;;;5053611;28;20521;-73
2022/03/05 08:33:18;;;;;;;8.30;6.47;;;18.30;55.00;;;;;;5053372;28;20457;-73
2022/03/05 08:35:45;;;;;;;6.67;6.00;;;18.00;56.30;;;;;;5053681;28;20548;-73
2022/03/05 08:38:13;;;;;;;7.77;6.87;;;17.70;55.70;;;;;;5054913;28;20450;-72
2022/03/05 08:40:40;;;;;;;7.87;6.27;;;17.70;54.70;;;;;;5053780;28;20505;-74
2022/03/05 08:43:07;;;;;;;8.43;7.17;;;18.10;55.40;;;;;;5053890;28;20650;-72
2022/03/05 08:45:34;;;;;;;8.07;6.57;;;18.40;54.90;;;;;;5054006;28;20529;-73
2022/03/05 08:48:01;;;;;;;8.90;7.23;;;18.20;54.60;;;;;;5053843;28;20525;-73
2022/03/05 08:50:28;;;;;;;7.67;6.20;;;18.20;54.00;;;;;;5053064;28;20521;-72
2022/03/05 08:52:55;;;;;;;7.77;6.90;;;17.90;54.10;;;;;;5052860;28;20961;-72
2022/03/05 08:55:24;;;;;;;7.10;6.40;;;17.70;53.70;;;;;;5054158;28;20449;-71
2022/03/05 08:57:51;;;;;;;6.60;5.60;;;17.40;54.00;;;;;;5046843;28;20807;-73
2022/03/05 09:00:18;;;;;;;7.30;6.07;;;17.10;54.20;;;;;;5053279;28;20852;-74
2022/03/05 09:02:46;;;;;;;7.53;5.90;;;17.50;54.60;;;;;;5053618;28;20485;-74
2022/03/05 09:05:14;;;;;;;8.50;6.10;;;16.60;54.70;;;;;;5055127;28;20450;-72
2022/03/05 09:07:41;;;;;;;8.77;5.90;;;16.00;55.80;;;;;;5053678;28;20442;-74
2022/03/05 09:10:09;;;;;;;7.20;6.03;;;15.50;56.10;;;;;;5053154;28;20525;-71
2022/03/05 09:12:38;;;;;;;12.53;7.23;;;15.90;57.30;;;;;;5054403;28;20549;-72
2022/03/05 09:15:06;;;;;;;6.90;5.80;;;16.10;57.00;;;;;;5046589;28;21023;-73
2022/03/05 09:17:33;;;;;;;7.40;5.43;;;16.10;56.40;;;;;;5053828;28;20438;-72
2022/03/05 09:20:00;;;;;;;6.27;4.97;;;16.70;56.80;;;;;;5052838;28;20442;-70
2022/03/05 09:22:27;;;;;;;7.73;5.57;;;16.10;57.00;;;;;;5053085;28;20499;-73
2022/03/05 09:24:54;;;;;;;9.30;6.20;;;15.60;57.40;;;;;;5053606;28;20536;-73
2022/03/05 09:27:21;;;;;;;11.20;5.73;;;15.70;58.20;;;;;;5047989;28;20441;-71
2022/03/05 09:29:49;;;;;;;8.73;5.37;;;15.50;58.20;;;;;;5050369;28;20537;-73
2022/03/05 09:32:16;;;;;;;4.97;4.47;;;15.50;57.90;;;;;;5053190;28;20476;-73
2022/03/05 09:34:43;;;;;;;8.67;5.30;;;15.80;57.90;;;;;;5052793;28;20464;-74
2022/03/05 09:37:10;;;;;;;6.80;5.73;;;15.80;57.60;;;;;;5053979;28;20442;-70
2022/03/05 09:39:37;;;;;;;6.80;5.33;;;15.80;57.60;;;;;;5052955;28;20525;-72
2022/03/05 09:42:05;;;;;;;6.87;5.20;;;15.30;58.00;;;;;;5045240;28;20631;-72
2022/03/05 09:44:32;;;;;;;6.30;5.57;;;14.90;58.50;;;;;;5053348;28;20810;-71
2022/03/05 09:47:03;;;;;;;8.27;5.60;;;14.10;58.50;;;;;;5053726;28;20796;-72
2022/03/05 09:49:30;;;;;;;7.10;5.43;;;13.70;59.80;;;;;;5053937;28;20215;-72
2022/03/05 09:51:59;;;;;;;9.23;5.10;;;14.10;60.60;;;;;;5052935;28;20221;-72
2022/03/05 09:54:28;;;;;;;6.05;4.53;;;14.60;60.10;;;;;;5054229;28;20641;-73
2022/03/05 09:56:55;;;;;;;5.20;4.70;;;14.90;59.10;;;;;;5054330;28;20203;-73
2022/03/05 09:59:22;;;;;;;7.43;5.05;;;14.80;58.30;;;;;;5055854;28;20296;-71
2022/03/05 10:01:50;;;;;;;11.32;5.50;;;14.40;58.30;;;;;;5053211;28;20237;-73
2022/03/05 10:04:23;;;;;;;6.80;5.00;;;14.30;58.60;;;;;;5048086;28;20201;-73
2022/03/05 10:07:10;;;;;;;12.27;5.70;;;14.20;58.40;;;;;;5052610;28;20502;-73
2022/03/05 10:09:38;;;;;;;6.80;5.40;;;13.90;58.10;;;;;;5048575;28;20290;-74
2022/03/05 10:12:30;;;;;;;5.20;4.65;;;13.40;58.60;;;;;;5051964;28;20306;-73
2022/03/05 10:15:09;;;;;;;5.72;4.55;;;12.70;59.70;;;;;;5052837;28;20246;-72
2022/03/05 10:17:50;;;;;;;5.93;4.70;;;12.50;61.40;;;;;;5053304;28;20260;-72
2022/03/05 10:20:19;;;;;;;7.15;5.70;;;12.30;61.90;;;;;;5051546;28;20294;-74
2022/03/05 10:22:58;;;;;;;6.63;5.03;;;12.30;62.20;;;;;;5052115;28;20231;-71
2022/03/05 10:25:34;;;;;;;7.35;4.40;;;12.30;62.70;;;;;;5051889;28;20253;-73
2022/03/05 10:28:03;;;;;;;6.70;5.10;;;12.90;61.00;;;;;;5051984;28;20582;-72
2022/03/05 10:30:32;;;;;;;6.40;5.00;;;13.00;59.90;;;;;;5046821;28;20204;-74
2022/03/05 10:32:59;;;;;;;9.90;7.60;;;13.20;59.60;;;;;;5051835;28;20230;-73
2022/03/05 10:35:27;;;;;;;5.93;5.25;;;13.20;59.50;;;;;;5052356;28;20283;-76
2022/03/05 10:37:55;;;;;;;7.05;4.57;;;12.80;59.10;;;;;;5054553;28;20219;-74
2022/03/05 10:40:27;;;;;;;7.88;5.50;;;13.00;59.40;;;;;;5055528;28;20295;-71
2022/03/05 10:42:54;;;;;;;6.32;4.53;;;13.00;59.20;;;;;;5056341;28;20331;-73
2022/03/05 10:45:22;;;;;;;7.53;4.80;;;12.80;59.10;;;;;;5056763;28;20291;-74
2022/03/05 10:47:49;;;;;;;7.68;5.70;;;12.70;59.30;;;;;;5055126;28;20236;-75
2022/03/05 10:50:24;;;;;;;6.82;4.93;;;12.60;59.70;;;;;;5055397;28;20259;-72
2022/03/05 10:52:54;;;;;;;10.65;5.57;;;11.80;59.60;;;;;;5055994;28;20713;-73
2022/03/05 10:55:23;;;;;;;7.60;5.88;;;11.10;60.80;;;;;;5058045;28;20292;-71
2022/03/05 10:58:06;;;;;;;8.85;5.82;;;10.50;62.90;;;;;;5055919;28;20286;-73
2022/03/05 11:00:33;;;;;;;6.80;4.80;;;10.20;63.70;;;;;;5056121;28;20239;-72
2022/03/05 11:03:02;;;;;;;6.50;5.10;;;9.90;65.80;;;;;;5056058;28;20226;-74
2022/03/05 11:05:29;;;;;;;5.78;4.50;;;9.90;65.90;;;;;;5055842;28;20203;-75
2022/03/05 11:07:58;;;;;;;10.55;5.97;;;9.70;65.70;;;;;;5055734;28;20286;-74
2022/03/05 11:10:29;;;;;;;5.85;5.05;;;9.50;66.60;;;;;;5055079;28;20278;-73
2022/03/05 11:12:59;;;;;;;8.05;4.60;;;9.40;67.80;;;;;;5055571;28;20235;-74
2022/03/05 11:15:27;;;;;;;8.10;5.75;;;9.30;68.10;;;;;;5055600;28;20254;-76
2022/03/05 11:17:55;;;;;;;7.70;4.82;;;9.20;68.10;;;;;;5055643;28;20203;-74
2022/03/05 11:20:22;;;;;;;7.13;5.25;;;9.00;69.70;;;;;;5054958;28;20290;-72
2022/03/05 11:22:50;;;;;;;8.10;5.28;;;9.20;69.80;;;;;;5056486;28;20353;-73
2022/03/05 11:25:23;;;;;;;9.38;6.68;;;9.20;69.30;;;;;;5055834;28;20208;-72
2022/03/05 11:27:58;;;;;;;7.57;4.88;;;9.10;69.50;;;;;;5049810;28;20290;-73
2022/03/05 11:30:25;;;;;;;7.60;6.22;;;9.10;68.80;;;;;;5049923;28;20229;-74
2022/03/05 11:32:53;;;;;;;7.15;5.25;;;9.00;69.40;;;;;;5055351;28;20254;-72
2022/03/05 11:35:23;;;;;;;6.10;5.10;;;9.00;70.40;;;;;;5055527;28;20281;-72
2022/03/05 11:37:51;;;;;;;8.98;5.72;;;9.00;70.30;;;;;;5055167;28;20306;-76
2022/03/05 11:40:39;;;;;;;17.13;5.78;;;9.00;70.00;;;;;;5053705;28;20207;-72
2022/03/05 11:43:18;;;;;;;5.53;4.38;;;8.70;70.00;;;;;;5054480;28;20314;-72
2022/03/05 11:45:57;;;;;;;8.43;5.40;;;8.50;70.60;;;;;;5053312;28;20295;-72
2022/03/05 11:48:29;;;;;;;9.75;6.00;;;8.40;70.40;;;;;;5043102;28;20680;-72
2022/03/05 11:50:58;;;;;;;8.10;5.50;;;8.30;72.10;;;;;;5052787;28;20207;-73
2022/03/05 11:53:25;;;;;;;7.55;5.97;;;8.30;72.20;;;;;;5058106;28;20241;-76
2022/03/05 11:55:54;;;;;;;8.05;5.18;;;8.50;72.90;;;;;;5055251;28;20206;-72
2022/03/05 11:58:35;;;;;;;7.85;5.93;;;8.30;73.00;;;;;;5055186;28;20284;-74
2022/03/05 12:01:34;;;;;;;7.85;6.53;;;8.30;73.40;;;;;;5053789;28;20334;-74
2022/03/05 12:04:16;;;;;;;14.63;6.88;;;8.40;73.20;;;;;;5055194;28;20535;-74
2022/03/05 12:06:44;;;;;;;7.35;5.68;;;8.50;73.00;;;;;;5050188;28;20269;-72
2022/03/05 12:09:34;;;;;;;8.60;6.30;;;8.40;72.90;;;;;;5054973;28;20211;-73
2022/03/05 12:12:04;;;;;;;7.18;5.85;;;8.50;73.00;;;;;;5054693;28;20269;-74
2022/03/05 12:15:08;;;;;;;10.68;6.50;;;8.40;72.90;;;;;;5054861;28;20230;-73
2022/03/05 12:17:38;;;;;;;9.25;5.50;;;8.30;72.40;;;;;;5050618;28;20206;-72
2022/03/05 12:20:06;;;;;;;9.10;6.50;;;8.30;73.50;;;;;;5053842;28;20238;-72
2022/03/05 12:22:34;;;;;;;8.15;5.72;;;8.50;74.00;;;;;;5054480;28;20321;-71
2022/03/05 12:25:01;;;;;;;9.13;6.25;;;8.60;73.70;;;;;;5054407;28;20613;-75
2022/03/05 12:27:31;;;;;;;9.50;6.03;;;8.60;73.40;;;;;;5054371;28;20721;-73
2022/03/05 12:29:58;;;;;;;8.85;6.05;;;8.60;73.00;;;;;;5053429;28;20203;-75
2022/03/05 12:32:31;;;;;;;11.15;6.35;;;8.50;73.00;;;;;;5054429;28;20688;-73
2022/03/05 12:35:06;;;;;;;9.88;5.55;;;8.30;73.60;;;;;;5053665;28;20227;-71
2022/03/05 12:37:33;;;;;;;9.90;5.72;;;8.30;74.30;;;;;;5057675;28;20211;-72
2022/03/05 12:40:01;;;;;;;7.45;4.93;;;8.30;74.90;;;;;;5053337;28;20237;-75
2022/03/05 12:42:37;;;;;;;11.70;6.78;;;8.30;75.00;;;;;;5053852;28;20237;-73
2022/03/05 12:45:05;;;;;;;8.02;6.05;;;8.30;74.70;;;;;;5051535;28;20253;-76
2022/03/05 12:47:33;;;;;;;8.10;5.82;;;8.30;75.00;;;;;;5054419;28;20257;-72
2022/03/05 12:50:19;;;;;;;9.38;6.20;;;8.30;75.20;;;;;;5054210;28;20209;-72
2022/03/05 12:53:09;;;;;;;8.32;6.43;;;8.30;75.50;;;;;;5053973;28;20234;-72
2022/03/05 12:55:39;;;;;;;7.40;5.35;;;8.30;75.20;;;;;;5054093;28;20238;-74
2022/03/05 12:58:11;;;;;;;12.50;6.70;;;8.40;73.30;;;;;;5053636;28;20210;-72
2022/03/05 13:00:38;;;;;;;9.90;6.07;;;8.30;73.30;;;;;;5052199;28;20199;-72
2022/03/05 13:03:07;;;;;;;10.05;6.55;;;8.30;73.50;;;;;;5052711;28;20499;-74
2022/03/05 13:05:34;;;;;;;8.98;6.10;;;8.30;73.70;;;;;;5052840;28;20200;-73